createdAt,value
2023-07-11T00:01:18.287Z,22.42
2023-07-11T00:03:46.385Z,22.44
2023-07-11T00:06:18.118Z,22.45
2023-07-11T00:08:45.934Z,22.43
2023-07-11T00:11:19.384Z,22.47
2023-07-11T00:13:51.425Z,22.47
2023-07-11T00:16:20.807Z,22.35
2023-07-11T00:18:49.421Z,22.32
2023-07-11T00:21:18.801Z,22.30
2023-07-11T00:23:48.105Z,22.26
2023-07-11T00:26:17.113Z,22.27
2023-07-11T00:28:44.669Z,22.31
2023-07-11T00:31:12.691Z,22.37
2023-07-11T00:33:41.296Z,22.23
2023-07-11T00:37:58.179Z,22.10
2023-07-11T00:40:27.250Z,22.10
2023-07-11T00:42:55.470Z,21.94
2023-07-11T00:45:51.250Z,21.95
2023-07-11T00:48:23.654Z,21.84
2023-07-11T00:50:55.218Z,21.91
2023-07-11T00:53:23.365Z,21.89
2023-07-11T00:55:51.282Z,21.89
2023-07-11T00:58:21.161Z,21.87
2023-07-11T01:00:50.166Z,21.93
2023-07-11T01:03:19.066Z,21.94
2023-07-11T01:05:46.755Z,21.95
2023-07-11T01:08:15.710Z,21.87
2023-07-11T01:10:43.731Z,21.64
2023-07-11T01:13:11.598Z,21.45
2023-07-11T01:15:39.951Z,21.36
2023-07-11T01:18:07.678Z,21.27
2023-07-11T01:20:36.452Z,21.24
2023-07-11T01:23:04.514Z,21.18
2023-07-11T01:25:33.442Z,21.15
2023-07-11T01:28:02.143Z,21.07
2023-07-11T01:30:32.176Z,20.92
2023-07-11T01:33:00.188Z,20.87
2023-07-11T01:35:27.946Z,20.83
2023-07-11T01:37:58.123Z,20.74
2023-07-11T01:40:26.187Z,20.60
2023-07-11T02:36:38.597Z,20.58
2023-07-11T02:39:06.130Z,20.58
2023-07-11T02:41:34.248Z,20.59
2023-07-11T02:44:02.185Z,20.61
2023-07-11T02:46:31.665Z,20.67
2023-07-11T02:49:00.164Z,20.70
2023-07-11T02:51:27.910Z,20.77
2023-07-11T02:53:57.446Z,20.75
2023-07-11T02:56:25.145Z,20.74
2023-07-11T02:58:52.919Z,20.58
2023-07-11T03:01:21.235Z,20.53
2023-07-11T03:03:49.094Z,20.59
2023-07-11T03:06:19.482Z,20.63
2023-07-11T03:08:47.204Z,20.46
2023-07-11T03:11:18.623Z,20.40
2023-07-11T03:13:48.677Z,20.36
2023-07-11T03:16:16.643Z,20.41
2023-07-11T03:18:46.112Z,20.37
2023-07-11T03:21:14.138Z,20.32
2023-07-11T03:23:41.825Z,20.29
2023-07-11T03:26:12.389Z,20.20
2023-07-11T03:28:40.387Z,20.19
2023-07-11T03:31:08.320Z,20.15
2023-07-11T03:33:36.235Z,20.16
2023-07-11T03:36:05.972Z,20.05
2023-07-11T03:38:35.103Z,20.05
2023-07-11T03:41:02.850Z,20.00
2023-07-11T03:43:30.640Z,20.00
2023-07-11T03:46:00.542Z,19.99
2023-07-11T03:48:28.201Z,19.98
2023-07-11T03:50:56.688Z,19.96
2023-07-11T03:53:25.376Z,20.01
2023-07-11T03:55:53.492Z,19.99
2023-07-11T03:58:21.117Z,20.11
2023-07-11T04:00:48.915Z,20.19
2023-07-11T04:03:16.733Z,20.24
2023-07-11T04:05:45.344Z,20.25
2023-07-11T04:08:13.476Z,20.18
2023-07-11T04:10:41.414Z,20.13
2023-07-11T04:13:08.989Z,20.22
2023-07-11T04:15:36.600Z,20.19
2023-07-11T04:18:06.695Z,20.19
2023-07-11T04:20:36.526Z,20.20
2023-07-11T04:23:04.307Z,20.26
2023-07-11T04:25:36.883Z,20.33
2023-07-11T04:28:06.514Z,20.34
2023-07-11T04:30:34.905Z,20.40
2023-07-11T04:33:02.530Z,20.39
2023-07-11T04:35:31.896Z,20.38
2023-07-11T04:38:00.224Z,20.39
2023-07-11T04:40:28.218Z,20.39
2023-07-11T04:42:59.968Z,20.51
2023-07-11T04:45:28.146Z,20.58
2023-07-11T04:47:56.063Z,20.62
2023-07-11T04:50:25.345Z,20.63
2023-07-11T04:52:53.269Z,20.73
2023-07-11T04:55:22.232Z,20.83
2023-07-11T04:57:50.623Z,20.88
2023-07-11T05:00:24.880Z,20.95
2023-07-11T05:02:53.236Z,20.90
2023-07-11T05:05:21.180Z,21.14
2023-07-11T05:07:49.082Z,21.19
2023-07-11T05:10:17.243Z,21.26
2023-07-11T05:12:45.059Z,21.26
2023-07-11T05:15:13.407Z,21.31
2023-07-11T05:17:42.084Z,21.35
2023-07-11T05:20:14.443Z,21.32
2023-07-11T05:22:42.874Z,21.41
2023-07-11T05:25:10.912Z,21.36
2023-07-11T05:27:38.926Z,21.41
2023-07-11T05:30:07.467Z,21.53
2023-07-11T05:32:35.028Z,21.60
2023-07-11T05:35:02.710Z,21.66
2023-07-11T05:37:30.440Z,21.85
2023-07-11T05:39:58.109Z,21.95
2023-07-11T05:42:50.697Z,22.01
2023-07-11T05:45:18.377Z,22.02
2023-07-11T05:47:49.246Z,22.09
2023-07-11T05:50:18.148Z,22.07
2023-07-11T05:52:47.032Z,22.07
2023-07-11T05:55:14.662Z,22.12
2023-07-11T05:57:42.896Z,22.28
2023-07-11T06:00:12.060Z,22.40
2023-07-11T06:02:42.977Z,22.49
2023-07-11T06:05:11.914Z,22.40
2023-07-11T06:07:40.374Z,22.56
2023-07-11T06:10:08.687Z,22.54
2023-07-11T06:12:36.622Z,22.74
2023-07-11T06:15:04.972Z,22.96
2023-07-11T06:17:32.762Z,23.09
2023-07-11T06:20:05.421Z,23.13
2023-07-11T06:22:33.351Z,23.14
2023-07-11T06:25:01.005Z,23.32
2023-07-11T06:27:28.815Z,23.45
2023-07-11T06:29:57.504Z,23.50
2023-07-11T06:32:25.245Z,23.34
2023-07-11T06:34:53.221Z,23.51
2023-07-11T06:37:21.885Z,23.76
2023-07-11T06:39:51.094Z,23.82
2023-07-11T06:42:19.215Z,23.96
2023-07-11T06:44:46.876Z,24.18
2023-07-11T06:47:14.962Z,24.16
2023-07-11T06:49:45.116Z,24.21
2023-07-11T06:52:14.140Z,24.24
2023-07-11T06:54:41.978Z,24.31
2023-07-11T06:57:11.151Z,24.52
2023-07-11T06:59:38.674Z,24.58
2023-07-11T07:02:07.012Z,24.67
2023-07-11T07:04:34.721Z,24.80
2023-07-11T07:07:02.254Z,24.89
2023-07-11T07:09:29.895Z,25.06
2023-07-11T07:12:25.284Z,25.11
2023-07-11T07:14:52.943Z,25.11
2023-07-11T07:17:21.149Z,25.40
2023-07-11T07:19:50.220Z,25.54
2023-07-11T07:22:17.835Z,25.55
2023-07-11T07:26:02.073Z,25.77
2023-07-11T07:28:30.871Z,25.95
2023-07-11T07:31:00.651Z,26.01
2023-07-11T07:33:29.663Z,26.12
2023-07-11T07:35:59.372Z,25.95
2023-07-11T07:38:30.040Z,25.76
2023-07-11T07:41:01.231Z,26.04
2023-07-11T07:43:33.293Z,26.24
2023-07-11T07:46:01.989Z,26.42
2023-07-11T07:48:30.729Z,26.52
2023-07-11T07:51:13.072Z,26.60
2023-07-11T07:53:40.957Z,26.64
2023-07-11T07:56:19.419Z,26.88
2023-07-11T07:58:49.303Z,26.88
2023-07-11T08:01:21.961Z,27.09
2023-07-11T08:03:50.970Z,27.22
2023-07-11T08:06:20.696Z,27.30
2023-07-11T08:08:49.679Z,27.40
2023-07-11T08:11:21.789Z,27.43
2023-07-11T08:13:59.322Z,27.25
2023-07-11T08:16:33.651Z,27.35
2023-07-11T08:19:07.897Z,27.52
2023-07-11T08:21:37.802Z,27.67
2023-07-11T08:24:08.929Z,27.92
2023-07-11T08:26:40.982Z,28.04
2023-07-11T08:29:20.539Z,28.02
2023-07-11T08:31:56.527Z,28.13
2023-07-11T08:34:24.273Z,27.88
2023-07-11T08:36:51.878Z,27.73
2023-07-11T08:39:22.650Z,27.91
2023-07-11T08:41:53.247Z,28.29
2023-07-11T08:44:40.308Z,28.42
2023-07-11T08:47:32.919Z,28.36
2023-07-11T08:50:09.496Z,28.58
2023-07-11T08:52:37.193Z,28.91
2023-07-11T08:55:14.204Z,28.77
2023-07-11T08:57:49.471Z,28.64
2023-07-11T09:00:19.521Z,29.04
2023-07-11T09:02:53.929Z,29.19
2023-07-11T09:05:37.148Z,29.52
2023-07-11T09:08:05.290Z,29.60
2023-07-11T09:10:49.344Z,29.49
2023-07-11T09:13:43.050Z,29.61
2023-07-11T09:16:23.843Z,29.67
2023-07-11T09:19:17.374Z,29.57
2023-07-11T09:21:58.836Z,29.03
2023-07-11T09:24:35.222Z,29.43
2023-07-11T09:27:16.073Z,29.85
2023-07-11T09:29:47.035Z,29.87
2023-07-11T09:32:15.065Z,29.87
2023-07-11T09:34:48.573Z,30.15
2023-07-11T09:37:22.116Z,30.26
2023-07-11T09:39:59.316Z,29.89
2023-07-11T09:42:42.368Z,30.13
2023-07-11T09:45:18.539Z,29.81
2023-07-11T09:47:54.657Z,30.05
2023-07-11T09:50:58.311Z,30.42
2023-07-11T09:53:34.804Z,31.13
2023-07-11T09:58:37.229Z,32.44
2023-07-11T10:01:07.774Z,33.15
2023-07-11T10:03:37.800Z,33.68
2023-07-11T10:06:06.615Z,34.17
2023-07-11T10:08:45.131Z,33.71
2023-07-11T10:11:14.660Z,34.23
2023-07-11T10:13:46.049Z,34.73
2023-07-11T10:16:19.347Z,33.94
2023-07-11T10:18:48.291Z,34.60
2023-07-11T10:21:31.451Z,35.51
2023-07-11T10:24:04.382Z,33.62
2023-07-11T10:26:42.964Z,33.86
2023-07-11T10:29:24.377Z,34.44
2023-07-11T10:32:07.011Z,34.96
2023-07-11T10:34:57.008Z,35.00
2023-07-11T10:37:40.854Z,35.51
2023-07-11T10:40:29.947Z,36.29
2023-07-11T10:42:59.171Z,36.27
2023-07-11T10:45:31.825Z,36.20
2023-07-11T10:48:07.560Z,35.69
2023-07-11T10:50:51.373Z,36.32
2023-07-11T10:53:24.993Z,35.62
2023-07-11T10:56:07.327Z,36.29
2023-07-11T10:58:36.849Z,35.16
2023-07-11T11:01:13.826Z,36.16
2023-07-11T11:03:45.371Z,35.41
2023-07-11T11:06:26.353Z,36.87
2023-07-11T11:09:19.132Z,37.49
2023-07-11T11:12:05.575Z,37.53
2023-07-11T11:14:54.103Z,37.86
2023-07-11T11:18:08.931Z,37.67
2023-07-11T11:21:06.284Z,37.48
2023-07-11T11:24:02.821Z,37.50
2023-07-11T11:26:46.260Z,37.76
2023-07-11T11:29:33.422Z,37.14
2023-07-11T11:32:47.615Z,37.28
2023-07-11T11:35:30.012Z,37.14
2023-07-11T11:38:18.302Z,37.16
2023-07-11T11:40:50.778Z,37.86
2023-07-11T11:43:24.344Z,35.39
2023-07-11T11:46:29.397Z,35.91
2023-07-11T11:51:24.064Z,36.99
2023-07-11T11:54:13.635Z,38.41
2023-07-11T11:56:46.172Z,39.05
2023-07-11T11:59:20.436Z,38.78
2023-07-11T12:02:02.636Z,37.89
2023-07-11T12:04:31.778Z,37.63
2023-07-11T12:07:04.528Z,38.26
2023-07-11T12:09:37.438Z,38.36
2023-07-11T12:12:09.374Z,37.55
2023-07-11T12:14:44.810Z,37.29
2023-07-11T12:17:41.788Z,37.68
2023-07-11T12:20:14.134Z,38.19
2023-07-11T12:22:45.326Z,38.01
2023-07-11T12:25:19.229Z,38.34
2023-07-11T12:28:02.711Z,37.49
2023-07-11T12:30:47.119Z,38.48
2023-07-11T12:33:31.255Z,39.48
2023-07-11T12:36:05.454Z,40.10
2023-07-11T12:38:53.466Z,38.71
2023-07-11T12:41:45.755Z,39.16
2023-07-11T12:44:21.300Z,37.58
2023-07-11T12:46:53.367Z,38.98
2023-07-11T12:49:32.359Z,39.01
2023-07-11T12:52:15.560Z,39.28
2023-07-11T12:54:45.277Z,38.70
2023-07-11T12:57:20.679Z,38.78
2023-07-11T12:59:51.397Z,37.76
2023-07-11T13:02:28.920Z,38.14
2023-07-11T13:04:59.962Z,36.99
2023-07-11T13:07:32.358Z,36.56
2023-07-11T13:10:02.262Z,36.39
2023-07-11T13:12:39.851Z,36.21
2023-07-11T13:15:38.939Z,36.71
2023-07-11T13:18:29.569Z,37.88
2023-07-11T13:21:01.903Z,37.07
2023-07-11T13:23:36.333Z,37.56
2023-07-11T13:26:30.662Z,37.97
2023-07-11T13:29:11.969Z,38.95
2023-07-11T13:31:40.221Z,40.09
2023-07-11T13:34:24.343Z,40.27
2023-07-11T13:36:53.139Z,37.79
2023-07-11T13:39:25.035Z,36.91
2023-07-11T13:41:56.400Z,36.14
2023-07-11T13:44:27.571Z,36.16
2023-07-11T13:46:55.991Z,35.67
2023-07-11T13:49:36.502Z,34.92
2023-07-11T13:52:04.999Z,35.08
2023-07-11T13:54:35.921Z,35.39
2023-07-11T13:57:08.025Z,35.07
2023-07-11T13:59:38.281Z,35.89
2023-07-11T14:02:20.185Z,37.02
2023-07-11T14:04:50.169Z,37.87
2023-07-11T14:07:20.645Z,38.74
2023-07-11T14:09:51.256Z,38.28
2023-07-11T14:12:23.121Z,37.42
2023-07-11T14:14:51.925Z,37.06
2023-07-11T14:17:21.566Z,37.06
2023-07-11T14:19:53.254Z,37.51
2023-07-11T14:22:26.197Z,37.16
2023-07-11T14:24:54.435Z,37.82
2023-07-11T14:27:23.022Z,38.32
2023-07-11T14:29:50.645Z,37.47
2023-07-11T14:32:20.657Z,37.42
2023-07-11T14:34:48.419Z,38.11
2023-07-11T14:37:17.776Z,39.01
2023-07-11T14:39:57.294Z,38.97
2023-07-11T14:42:31.515Z,39.17
2023-07-11T14:45:00.407Z,38.59
2023-07-11T14:47:32.123Z,37.69
2023-07-11T14:50:02.507Z,37.21
2023-07-11T14:52:34.385Z,37.75
2023-07-11T15:00:07.755Z,38.55
2023-07-11T15:02:38.123Z,39.28
2023-07-11T15:16:15.565Z,38.99
2023-07-11T15:18:44.738Z,37.42
2023-07-11T15:21:13.219Z,37.12
2023-07-11T15:23:41.279Z,37.91
2023-07-11T15:26:08.897Z,38.38
2023-07-11T15:28:36.826Z,38.55
2023-07-11T15:31:04.988Z,38.49
2023-07-11T15:33:37.707Z,39.00
2023-07-11T15:36:06.168Z,39.60
2023-07-11T15:38:35.312Z,39.55
2023-07-11T15:41:07.958Z,38.58
2023-07-11T15:43:42.407Z,37.61
2023-07-11T15:46:22.548Z,38.14
2023-07-11T15:48:51.819Z,38.00
2023-07-11T15:51:19.540Z,38.39
2023-07-11T15:53:47.471Z,38.12
2023-07-11T15:56:16.034Z,38.79
2023-07-11T15:58:43.555Z,38.99
2023-07-11T16:01:11.221Z,38.99
2023-07-11T16:03:38.979Z,39.41
2023-07-11T16:06:14.318Z,39.65
2023-07-11T16:08:43.503Z,39.64
2023-07-11T16:11:14.570Z,39.24
2023-07-11T16:13:43.186Z,39.14
2023-07-11T16:16:17.928Z,39.01
2023-07-11T16:18:45.692Z,38.79
2023-07-11T16:21:15.306Z,38.35
2023-07-11T16:23:42.803Z,37.75
2023-07-11T16:26:20.337Z,37.49
2023-07-11T16:28:48.033Z,37.92
2023-07-11T16:31:15.947Z,37.84
2023-07-11T16:33:43.721Z,37.99
2023-07-11T16:36:16.330Z,37.50
2023-07-11T16:38:44.019Z,36.67
2023-07-11T16:41:11.648Z,36.17
2023-07-11T16:43:39.184Z,35.73
2023-07-11T16:46:06.795Z,35.58
2023-07-11T16:48:34.791Z,35.28
2023-07-11T16:51:09.817Z,35.19
2023-07-11T16:53:37.651Z,35.06
2023-07-11T16:56:06.128Z,35.04
2023-07-11T16:58:40.546Z,34.87
2023-07-11T17:01:16.569Z,34.75
2023-07-11T17:03:45.134Z,34.55
2023-07-11T17:06:34.032Z,34.51
2023-07-11T17:09:06.711Z,34.33
2023-07-11T17:11:34.336Z,34.14
2023-07-11T17:14:02.090Z,33.99
2023-07-11T17:16:36.631Z,33.91
2023-07-11T17:19:12.342Z,33.85
2023-07-11T17:21:40.137Z,33.77
2023-07-11T17:24:25.580Z,33.74
2023-07-11T17:27:04.682Z,33.63
2023-07-11T17:29:34.659Z,33.69
2023-07-11T17:32:02.525Z,33.62
2023-07-11T17:34:30.368Z,33.59
2023-07-11T17:36:58.456Z,33.52
2023-07-11T17:39:26.212Z,33.31
2023-07-11T17:42:26.476Z,33.11
2023-07-11T17:44:56.735Z,33.12
2023-07-11T17:50:01.109Z,32.91
2023-07-11T17:52:31.831Z,32.66
2023-07-11T17:55:00.468Z,32.74
2023-07-11T17:57:31.446Z,32.65
2023-07-11T17:59:59.368Z,32.74
2023-07-11T18:02:36.009Z,32.80
2023-07-11T18:05:18.221Z,32.79
2023-07-11T18:07:47.777Z,32.67
2023-07-11T18:10:29.116Z,32.63
2023-07-11T18:13:10.334Z,32.61
2023-07-11T18:15:43.297Z,32.56
2023-07-11T18:18:27.432Z,32.58
2023-07-11T18:20:57.167Z,32.58
2023-07-11T18:23:29.234Z,32.51
2023-07-11T18:25:59.664Z,32.49
2023-07-11T18:28:27.431Z,32.39
2023-07-11T18:30:55.060Z,32.42
2023-07-11T18:33:23.000Z,32.30
2023-07-11T18:35:51.068Z,32.32
2023-07-11T18:38:26.883Z,32.09
2023-07-11T18:40:54.872Z,32.09
2023-07-11T18:43:22.654Z,32.15
2023-07-11T18:45:51.084Z,31.97
2023-07-11T18:48:19.236Z,31.87
2023-07-11T18:50:49.803Z,31.82
2023-07-11T18:53:20.757Z,31.84
2023-07-11T18:55:48.434Z,31.78
2023-07-11T18:58:18.801Z,31.70
2023-07-11T19:00:49.147Z,31.50
2023-07-11T19:03:18.999Z,31.53
2023-07-11T19:05:47.531Z,31.41
2023-07-11T19:08:21.256Z,31.37
2023-07-11T19:10:50.160Z,31.32
2023-07-11T19:13:17.953Z,31.28
2023-07-11T19:15:50.372Z,31.23
2023-07-11T19:18:23.606Z,30.97
2023-07-11T19:20:51.795Z,31.04
2023-07-11T19:23:28.165Z,30.90
2023-07-11T19:25:57.304Z,30.90
2023-07-11T19:28:29.906Z,30.96
2023-07-11T19:30:59.521Z,30.92
2023-07-11T19:33:27.139Z,30.82
2023-07-11T19:35:58.285Z,30.73
2023-07-11T19:38:28.046Z,30.86
2023-07-11T19:40:59.435Z,30.75
2023-07-11T19:43:31.006Z,30.68
2023-07-11T19:46:02.260Z,30.51
2023-07-11T19:48:30.519Z,30.55
2023-07-11T19:51:02.974Z,30.53
2023-07-11T19:53:34.478Z,30.50
2023-07-11T19:56:24.910Z,30.53
2023-07-11T19:58:53.109Z,30.50
2023-07-11T20:01:21.043Z,30.37
2023-07-11T20:03:50.534Z,30.36
2023-07-11T20:06:24.362Z,30.28
2023-07-11T20:08:53.175Z,30.18
2023-07-11T20:11:21.009Z,30.22
2023-07-11T20:13:48.853Z,30.18
2023-07-11T20:16:19.764Z,30.08
2023-07-11T20:18:47.877Z,30.04
2023-07-11T20:21:20.629Z,29.96
2023-07-11T20:23:53.525Z,30.03
2023-07-11T20:26:27.398Z,30.07
2023-07-11T20:28:58.213Z,30.07
2023-07-11T20:31:29.178Z,29.98
2023-07-11T20:33:56.856Z,29.82
2023-07-11T20:36:27.383Z,29.76
2023-07-11T20:38:56.768Z,29.50
2023-07-11T20:41:25.662Z,29.28
2023-07-11T20:43:53.789Z,29.22
2023-07-11T20:46:24.055Z,29.10
2023-07-11T20:48:52.208Z,28.97
2023-07-11T20:51:20.755Z,29.00
2023-07-11T20:53:48.992Z,28.90
2023-07-11T20:56:22.550Z,28.96
2023-07-11T20:58:53.416Z,29.00
2023-07-11T21:01:23.617Z,29.12
2023-07-11T21:03:51.568Z,29.22
2023-07-11T21:06:40.269Z,29.23
2023-07-11T21:09:14.196Z,29.17
2023-07-11T21:11:47.646Z,28.92
2023-07-11T21:14:15.260Z,28.90
2023-07-11T21:16:42.818Z,28.85
2023-07-11T21:19:22.077Z,28.94
2023-07-11T21:21:49.699Z,28.42
2023-07-11T21:24:17.433Z,27.51
2023-07-11T21:26:44.985Z,27.08
2023-07-11T21:29:14.212Z,27.32
2023-07-11T21:31:42.421Z,27.54
2023-07-11T21:34:10.584Z,27.65
2023-07-11T21:36:38.189Z,27.76
2023-07-11T21:39:07.278Z,27.80
2023-07-11T21:41:35.915Z,27.70
2023-07-11T21:44:03.901Z,27.55
2023-07-11T21:46:34.999Z,27.73
2023-07-11T21:49:02.762Z,27.66
2023-07-11T21:51:32.584Z,27.81
2023-07-11T21:54:00.311Z,27.78
2023-07-11T21:56:30.787Z,27.88
2023-07-11T21:59:01.910Z,27.90
2023-07-11T22:01:30.612Z,27.82
2023-07-11T22:03:58.193Z,27.67
2023-07-11T22:06:28.355Z,27.23
2023-07-11T22:08:56.420Z,26.98
2023-07-11T22:11:24.083Z,26.92
2023-07-11T22:13:51.847Z,26.88
2023-07-11T22:16:26.700Z,26.77
2023-07-11T22:18:54.891Z,26.69
2023-07-11T22:21:24.298Z,26.64
2023-07-11T22:23:52.123Z,26.41
2023-07-11T22:27:42.344Z,25.42
2023-07-11T22:30:21.400Z,25.00
2023-07-11T22:32:49.956Z,24.62
2023-07-11T22:35:18.182Z,24.11
2023-07-11T22:37:49.221Z,23.70
2023-07-11T22:40:22.832Z,23.35
2023-07-11T22:42:51.115Z,23.10
2023-07-11T22:45:18.905Z,22.75
2023-07-11T22:47:46.928Z,22.21
2023-07-11T22:50:42.789Z,22.08
2023-07-11T22:53:12.900Z,22.03
2023-07-11T22:55:43.804Z,21.84
2023-07-11T22:58:27.867Z,21.65
2023-07-11T23:00:56.710Z,21.18
2023-07-11T23:03:25.721Z,20.83
2023-07-11T23:05:57.551Z,20.72
2023-07-11T23:08:29.613Z,20.68
2023-07-11T23:10:58.616Z,20.35
2023-07-11T23:13:26.336Z,20.29
2023-07-11T23:15:57.950Z,20.43
2023-07-11T23:18:27.522Z,20.34
2023-07-11T23:20:58.030Z,20.21
2023-07-11T23:23:28.737Z,20.11
2023-07-11T23:25:58.334Z,19.89
2023-07-11T23:28:31.576Z,19.82
2023-07-11T23:31:04.557Z,19.68
2023-07-11T23:33:32.995Z,19.75
2023-07-11T23:36:17.525Z,19.64
2023-07-11T23:38:50.979Z,19.53
2023-07-11T23:41:18.873Z,19.57
2023-07-11T23:43:46.968Z,19.62
2023-07-11T23:46:26.107Z,19.57
2023-07-11T23:48:54.403Z,19.59
2023-07-11T23:51:23.708Z,19.56
2023-07-11T23:53:52.785Z,19.51
2023-07-11T23:56:24.274Z,19.56
2023-07-11T23:58:52.749Z,19.53
